Accueil
METAR-TAF:

METAR-TAF

Aéroports :

Londres, Angleterre

Aéroport de Londres-City

latitude: 51-30N, longitude: 000-03E, altitude: 5 m

Observation

Le bulletin a été fait il y a 16 minutes, à 02:20 UTC
Vent 6 kt de est/sud-est
Température 10°C
Humidité 93%
Pression 1000 hPa
Visibilité 10 km ou plus
pluie faible

METAR: EGLC 010220Z AUTO 11006KT 9999 -RA NCD 10/09 Q1000

Heure: 03:36 (02:36 UTC)

Prévision

Le bulletin a été fait il y a 2 heures et 28 minutes, à 00:08 UTC
Prévision valable du 01 à 00 UTC au 01 à 03 UTC
Vent 5 kt de sud-est
Visibilité 10 km ou plus
Quelques nuages à une hauteur de 4500 ft
Temporairement
du 01 à 00 UTC au 01 à 01 UTC
Visibilité: 7000 m
pluie
Probabilité 30% :
Temporairement
du 01 à 00 UTC au 01 à 01 UTC
Visibilité: 4000 m
Nuages fragmentés à une hauteur de 1400 ft
forte pluie

TAF: EGLC 010008Z 0100/0103 14005KT 9999 FEW045 TEMPO 0100/0101 7000 RA PROB30 TEMPO 0100/0101 4000 +RA BKN014

Observations et prévisions météorologiques de plus de 4000 aéroports (messages METAR et TAF).

Les stations disponibles sont représentées par des disques jaunes et rouges sur la carte.

Passer la souris dessus pour voir le nom de la station.

Cliquer dessus pour voir les observations et prévisions météorologiques.

Pour changer de carte: cliquez sur les boutons verts avec une croix noire pour zoomer, sur le bouton vert avec un tiret pour effectuer un zoom arrière, ou sur les flèches vertes pour les cartes adjacentes.


METAR-TAF: